createdAt,value
2023-04-14T00:00:45.709Z,98058.20
2023-04-14T00:03:18.376Z,98055.80
2023-04-14T00:05:46.375Z,98057.00
2023-04-14T00:08:14.053Z,98048.80
2023-04-14T00:10:41.928Z,98048.60
2023-04-14T00:13:09.612Z,98049.40
2023-04-14T00:15:37.463Z,98048.00
2023-04-14T00:18:05.263Z,98043.60
2023-04-14T00:20:32.935Z,98041.60
2023-04-14T00:23:00.527Z,98039.40
2023-04-14T00:25:28.424Z,98040.20
2023-04-14T00:27:55.979Z,98033.40
2023-04-14T00:30:23.644Z,98031.80
2023-04-14T00:32:51.564Z,98025.80
2023-04-14T00:35:19.291Z,98028.20
2023-04-14T00:37:46.950Z,98020.80
2023-04-14T00:40:14.564Z,98022.80
2023-04-14T00:42:47.316Z,98013.20
2023-04-14T00:45:15.576Z,98024.60
2023-04-14T00:47:50.446Z,98011.80
2023-04-14T00:50:20.973Z,98020.40
2023-04-14T00:52:51.187Z,98016.60
2023-04-14T00:55:22.630Z,98015.80
2023-04-14T00:57:50.592Z,98020.20
2023-04-14T01:00:19.647Z,98017.60
2023-04-14T01:02:47.338Z,98009.80
2023-04-14T01:05:15.723Z,98012.60
2023-04-14T01:07:44.209Z,98011.80
2023-04-14T01:10:12.470Z,98013.60
2023-04-14T01:13:16.937Z,98014.80
2023-04-14T01:16:01.043Z,98014.40
2023-04-14T01:18:46.864Z,98017.40
2023-04-14T01:21:26.291Z,98013.60
2023-04-14T01:24:47.377Z,98021.20
2023-04-14T01:27:45.458Z,98017.40
2023-04-14T01:30:47.592Z,98014.00
2023-04-14T01:33:22.481Z,98009.60
2023-04-14T01:35:56.344Z,98002.60
2023-04-14T01:38:32.968Z,98000.40
2023-04-14T01:41:09.511Z,97992.20
2023-04-14T01:43:42.326Z,97989.80
2023-04-14T01:46:15.631Z,97994.80
2023-04-14T01:48:45.178Z,97993.40
2023-04-14T01:51:19.054Z,97992.60
2023-04-14T01:53:50.883Z,97991.80
2023-04-14T01:56:21.441Z,97991.60
2023-04-14T01:58:51.107Z,97990.20
2023-04-14T02:01:20.297Z,97997.60
2023-04-14T02:03:50.245Z,97991.40
2023-04-14T02:06:21.545Z,97991.80
2023-04-14T02:08:51.044Z,97988.20
2023-04-14T02:11:21.182Z,97983.00
2023-04-14T02:13:49.537Z,97978.00
2023-04-14T02:16:18.795Z,97977.00
2023-04-14T02:18:48.719Z,97971.80
2023-04-14T02:21:20.235Z,97971.40
2023-04-14T02:23:47.951Z,97968.20
2023-04-14T02:26:22.134Z,97969.20
2023-04-14T02:29:04.648Z,97967.00
2023-04-14T02:31:35.841Z,97968.20
2023-04-14T02:34:08.535Z,97965.60
2023-04-14T02:36:47.821Z,97965.00
2023-04-14T02:39:22.147Z,97968.80
2023-04-14T02:42:01.585Z,97971.00
2023-04-14T02:44:37.438Z,97973.40
2023-04-14T02:47:10.374Z,97976.80
2023-04-14T02:49:44.327Z,97972.60
2023-04-14T02:52:15.480Z,97971.00
2023-04-14T02:54:45.684Z,97962.60
2023-04-14T02:57:14.931Z,97970.80
2023-04-14T02:59:45.835Z,97966.40
2023-04-14T03:02:16.389Z,97969.00
2023-04-14T03:04:44.573Z,97972.40
2023-04-14T03:07:16.079Z,97972.40
2023-04-14T03:09:44.924Z,97963.00
2023-04-14T03:12:15.981Z,97961.60
2023-04-14T03:14:45.384Z,97960.60
2023-04-14T03:17:15.100Z,97965.60
2023-04-14T03:19:47.969Z,97964.80
2023-04-14T03:22:20.676Z,97964.40
2023-04-14T03:24:48.497Z,97966.40
2023-04-14T03:27:28.131Z,97966.80
2023-04-14T03:30:03.973Z,97959.40
2023-04-14T03:32:41.543Z,97960.00
2023-04-14T03:35:13.125Z,97957.60
2023-04-14T03:37:43.209Z,97956.00
2023-04-14T03:40:14.445Z,97955.40
2023-04-14T03:42:45.924Z,97953.20
2023-04-14T03:45:13.552Z,97950.40
2023-04-14T03:47:41.338Z,97948.60
2023-04-14T03:50:12.367Z,97949.60
2023-04-14T03:52:44.294Z,97955.40
2023-04-14T03:55:13.082Z,97952.80
2023-04-14T03:57:43.958Z,97948.00
2023-04-14T04:00:15.865Z,97948.60
2023-04-14T04:02:44.049Z,97948.60
2023-04-14T04:05:13.507Z,97953.00
2023-04-14T04:07:42.302Z,97948.20
2023-04-14T04:10:13.324Z,97944.60
2023-04-14T04:12:43.604Z,97940.40
2023-04-14T04:15:11.921Z,97939.80
2023-04-14T04:17:41.896Z,97938.00
2023-04-14T04:20:14.434Z,97935.00
2023-04-14T04:22:45.431Z,97933.80
2023-04-14T04:25:13.870Z,97931.40
2023-04-14T04:27:41.598Z,97929.20
2023-04-14T04:30:11.148Z,97926.20
2023-04-14T04:32:39.656Z,97921.80
2023-04-14T04:35:09.315Z,97923.40
2023-04-14T04:37:38.552Z,97924.80
2023-04-14T04:40:07.463Z,97925.00
2023-04-14T04:42:42.071Z,97920.60
2023-04-14T04:45:11.137Z,97924.20
2023-04-14T04:47:38.857Z,97928.20
2023-04-14T04:50:07.261Z,97933.20
2023-04-14T04:52:34.972Z,97932.20
2023-04-14T04:55:02.765Z,97933.40
2023-04-14T04:57:30.406Z,97937.00
2023-04-14T04:59:58.544Z,97933.60
2023-04-14T05:02:26.601Z,97930.80
2023-04-14T05:04:54.399Z,97933.20
2023-04-14T05:07:22.173Z,97935.40
2023-04-14T05:09:49.817Z,97933.80
2023-04-14T05:12:17.382Z,97932.60
2023-04-14T05:14:45.251Z,97932.20
2023-04-14T05:17:12.870Z,97923.40
2023-04-14T05:19:40.508Z,97920.20
2023-04-14T05:22:08.099Z,97930.40
2023-04-14T05:24:35.780Z,97925.60
2023-04-14T05:27:13.614Z,97922.00
2023-04-14T05:29:42.818Z,97921.20
2023-04-14T05:32:12.935Z,97911.60
2023-04-14T05:34:41.999Z,97911.20
2023-04-14T05:37:09.605Z,97910.20
2023-04-14T05:39:37.338Z,97896.80
2023-04-14T05:42:05.742Z,97894.20
2023-04-14T05:44:33.507Z,97889.80
2023-04-14T05:47:01.357Z,97879.40
2023-04-14T05:49:29.120Z,97869.40
2023-04-14T05:51:56.998Z,97874.40
2023-04-14T05:54:24.718Z,97873.60
2023-04-14T05:56:52.522Z,97870.60
2023-04-14T05:59:21.085Z,97876.00
2023-04-14T06:01:49.028Z,97866.80
2023-04-14T06:04:17.010Z,97868.00
2023-04-14T06:06:45.404Z,97868.40
2023-04-14T06:09:13.093Z,97861.20
2023-04-14T06:11:40.931Z,97857.20
2023-04-14T06:14:09.109Z,97847.20
2023-04-14T06:16:36.817Z,97848.00
2023-04-14T06:19:04.691Z,97841.40
2023-04-14T06:21:32.444Z,97836.00
2023-04-14T06:24:00.325Z,97833.20
2023-04-14T06:26:28.032Z,97830.20
2023-04-14T06:28:57.376Z,97824.80
2023-04-14T06:31:25.450Z,97834.80
2023-04-14T06:33:53.181Z,97834.40
2023-04-14T06:36:21.096Z,97834.40
2023-04-14T06:38:49.352Z,97830.80
2023-04-14T06:41:16.970Z,97832.40
2023-04-14T06:43:44.665Z,97828.20
2023-04-14T06:46:12.718Z,97833.40
2023-04-14T06:48:40.543Z,97833.80
2023-04-14T06:51:10.659Z,97834.60
2023-04-14T06:53:39.084Z,97835.80
2023-04-14T06:56:07.800Z,97838.20
2023-04-14T06:58:35.595Z,97837.00
2023-04-14T07:01:04.418Z,97845.20
2023-04-14T07:03:33.005Z,97843.80
2023-04-14T07:06:11.999Z,97840.60
2023-04-14T07:08:40.700Z,97839.60
2023-04-14T07:11:11.355Z,97838.00
2023-04-14T07:13:40.564Z,97837.60
2023-04-14T07:16:08.714Z,97835.20
2023-04-14T07:18:36.515Z,97837.00
2023-04-14T07:21:04.568Z,97837.20
2023-04-14T07:23:33.854Z,97830.60
2023-04-14T07:26:01.608Z,97823.20
2023-04-14T07:28:29.293Z,97825.20
2023-04-14T07:30:56.993Z,97822.20
2023-04-14T07:33:25.415Z,97814.20
2023-04-14T07:36:02.981Z,97819.40
2023-04-14T07:38:33.150Z,97816.40
2023-04-14T07:41:05.856Z,97809.20
2023-04-14T07:43:37.027Z,97806.00
2023-04-14T07:46:07.691Z,97810.80
2023-04-14T07:48:37.716Z,97807.60
2023-04-14T07:51:05.974Z,97812.40
2023-04-14T07:53:34.606Z,97812.60
2023-04-14T07:56:02.388Z,97805.60
2023-04-14T07:58:30.258Z,97799.60
2023-04-14T08:00:58.379Z,97803.40
2023-04-14T08:03:26.653Z,97796.00
2023-04-14T08:05:54.639Z,97795.20
2023-04-14T08:08:23.189Z,97798.80
2023-04-14T08:10:51.162Z,97796.00
2023-04-14T08:13:18.976Z,97793.00
2023-04-14T08:15:47.098Z,97790.20
2023-04-14T08:18:15.031Z,97788.00
2023-04-14T08:20:42.760Z,97782.00
2023-04-14T08:23:11.716Z,97781.00
2023-04-14T08:25:39.488Z,97781.80
2023-04-14T08:28:07.362Z,97786.40
2023-04-14T08:30:35.230Z,97783.40
2023-04-14T08:33:03.491Z,97785.00
2023-04-14T08:35:38.892Z,97788.00
2023-04-14T08:38:09.168Z,97787.80
2023-04-14T08:40:43.754Z,97779.20
2023-04-14T08:43:15.303Z,97775.80
2023-04-14T08:45:44.154Z,97782.40
2023-04-14T08:48:14.839Z,97779.40
2023-04-14T08:51:21.571Z,97783.80
2023-04-14T08:53:52.799Z,97782.20
2023-04-14T08:56:23.058Z,97783.20
2023-04-14T08:58:50.934Z,97781.40
2023-04-14T09:01:20.881Z,97776.20
2023-04-14T09:03:49.815Z,97775.80
2023-04-14T09:06:18.588Z,97776.00
2023-04-14T09:08:46.417Z,97773.20
2023-04-14T09:11:18.975Z,97778.40
2023-04-14T09:13:49.730Z,97771.80
2023-04-14T09:16:19.372Z,97767.60
2023-04-14T09:18:47.491Z,97762.80
2023-04-14T09:21:50.240Z,97757.80
2023-04-14T09:24:06.206Z,97751.40
2023-04-14T09:26:34.061Z,97749.80
2023-04-14T09:29:02.039Z,97757.00
2023-04-14T09:31:30.976Z,97756.60
2023-04-14T09:33:58.935Z,97749.00
2023-04-14T09:36:29.121Z,97744.00
2023-04-14T09:38:57.342Z,97738.00
2023-04-14T09:41:28.110Z,97739.00
2023-04-14T09:43:55.960Z,97738.00
2023-04-14T09:46:23.788Z,97734.20
2023-04-14T09:48:55.371Z,97739.40
2023-04-14T09:51:33.048Z,97732.80
2023-04-14T09:54:05.912Z,97732.60
2023-04-14T09:56:34.095Z,97724.20
2023-04-14T09:59:03.434Z,97728.20
2023-04-14T10:01:34.458Z,97720.60
2023-04-14T10:04:04.216Z,97721.40
2023-04-14T10:06:32.168Z,97708.20
2023-04-14T10:09:00.587Z,97707.40
2023-04-14T10:11:35.354Z,97710.40
2023-04-14T10:14:07.435Z,97702.60
2023-04-14T10:16:35.345Z,97695.20
2023-04-14T10:19:03.914Z,97701.80
2023-04-14T10:21:32.861Z,97698.60
2023-04-14T10:24:01.245Z,97691.40
2023-04-14T10:26:30.128Z,97692.60
2023-04-14T10:28:59.420Z,97682.40
2023-04-14T10:31:33.241Z,97676.60
2023-04-14T10:34:16.176Z,97676.00
2023-04-14T10:36:44.674Z,97673.60
2023-04-14T10:39:12.927Z,97660.60
2023-04-14T10:41:52.481Z,97671.40
2023-04-14T10:44:26.461Z,97662.00
2023-04-14T10:47:00.258Z,97654.40
2023-04-14T10:49:35.769Z,97645.20
2023-04-14T10:52:25.266Z,97643.60
2023-04-14T10:55:01.347Z,97639.80
2023-04-14T10:57:30.368Z,97638.40
2023-04-14T11:00:00.368Z,97622.60
2023-04-14T11:02:31.857Z,97631.20
2023-04-14T11:05:11.709Z,97634.40
2023-04-14T11:07:48.347Z,97629.40
2023-04-14T11:10:24.777Z,97620.40
2023-04-14T11:13:03.901Z,97623.40
2023-04-14T11:16:05.548Z,97615.20
2023-04-14T11:18:34.782Z,97616.00
2023-04-14T11:21:10.767Z,97620.60
2023-04-14T11:23:39.034Z,97616.80
2023-04-14T11:26:09.410Z,97613.80
2023-04-14T11:28:46.689Z,97615.80
2023-04-14T11:31:19.863Z,97616.00
2023-04-14T11:33:49.787Z,97615.00
2023-04-14T11:36:19.530Z,97618.80
2023-04-14T11:38:48.077Z,97611.00
2023-04-14T11:41:16.393Z,97612.60
2023-04-14T11:43:46.896Z,97611.60
2023-04-14T11:46:18.104Z,97599.60
2023-04-14T11:48:45.810Z,97603.00
2023-04-14T11:51:14.066Z,97610.00
2023-04-14T11:53:43.183Z,97599.20
2023-04-14T11:56:12.820Z,97598.60
2023-04-14T11:58:40.787Z,97595.80
2023-04-14T12:01:08.617Z,97601.40
2023-04-14T12:03:36.960Z,97595.20
2023-04-14T12:06:05.815Z,97598.00
2023-04-14T12:08:34.086Z,97595.20
2023-04-14T12:11:15.725Z,97588.80
2023-04-14T12:13:46.655Z,97590.60
2023-04-14T12:16:17.044Z,97592.80
2023-04-14T12:18:44.928Z,97595.20
2023-04-14T12:21:19.142Z,97581.80
2023-04-14T12:23:49.186Z,97588.40
2023-04-14T12:26:17.498Z,97587.60
2023-04-14T12:28:46.271Z,97582.80
2023-04-14T12:31:13.960Z,97587.00
2023-04-14T12:33:44.272Z,97586.40
2023-04-14T12:36:13.340Z,97587.40
2023-04-14T12:38:41.759Z,97591.20
2023-04-14T12:41:10.986Z,97583.60
2023-04-14T12:43:41.416Z,97584.20
2023-04-14T12:46:09.190Z,97586.80
2023-04-14T12:48:46.953Z,97584.40
2023-04-14T12:51:20.608Z,97577.60
2023-04-14T12:53:53.643Z,97586.20
2023-04-14T12:56:24.274Z,97581.40
2023-04-14T12:58:52.463Z,97579.60
2023-04-14T13:01:21.866Z,97561.20
2023-04-14T13:03:52.953Z,97561.20
2023-04-14T13:06:24.525Z,97555.20
2023-04-14T13:08:56.228Z,97549.40
2023-04-14T13:11:24.585Z,97544.60
2023-04-14T13:13:54.033Z,97550.40
2023-04-14T13:16:22.549Z,97546.60
2023-04-14T13:18:54.425Z,97540.80
2023-04-14T13:21:22.121Z,97546.20
2023-04-14T13:23:49.780Z,97546.80
2023-04-14T13:26:17.485Z,97546.00
2023-04-14T13:28:46.036Z,97542.60
2023-04-14T13:31:18.177Z,97546.40
2023-04-14T13:33:46.046Z,97545.80
2023-04-14T13:36:13.866Z,97538.00
2023-04-14T13:38:42.054Z,97531.40
2023-04-14T13:41:09.752Z,97524.80
2023-04-14T13:43:37.591Z,97530.20
2023-04-14T13:46:05.369Z,97526.80
2023-04-14T13:48:33.121Z,97524.40
2023-04-14T13:51:02.277Z,97525.20
2023-04-14T13:53:29.993Z,97520.40
2023-04-14T13:55:58.072Z,97518.80
2023-04-14T13:58:26.411Z,97518.00
2023-04-14T14:00:55.370Z,97504.80
2023-04-14T14:03:23.293Z,97501.00
2023-04-14T14:05:51.450Z,97496.80
2023-04-14T14:08:19.024Z,97497.60
2023-04-14T14:10:46.741Z,97495.20
2023-04-14T14:13:15.880Z,97492.20
2023-04-14T14:15:44.990Z,97492.80
2023-04-14T14:18:13.516Z,97495.20
2023-04-14T14:20:41.131Z,97500.00
2023-04-14T14:23:11.994Z,97503.60
2023-04-14T14:25:41.174Z,97501.80
2023-04-14T14:28:09.130Z,97498.40
2023-04-14T14:30:36.922Z,97512.60
2023-04-14T14:33:05.551Z,97516.20
2023-04-14T14:35:33.197Z,97519.20
2023-04-14T14:38:01.065Z,97522.60
2023-04-14T14:40:29.966Z,97521.40
2023-04-14T14:42:57.800Z,97521.60
2023-04-14T14:45:30.696Z,97526.60
2023-04-14T14:47:59.458Z,97532.80
2023-04-14T14:50:27.506Z,97527.40
2023-04-14T14:52:56.751Z,97528.60
2023-04-14T14:55:24.730Z,97529.60
2023-04-14T14:57:52.439Z,97528.80
2023-04-14T15:00:20.302Z,97536.00
2023-04-14T15:02:48.087Z,97537.80
2023-04-14T15:05:16.305Z,97546.00
2023-04-14T15:07:44.934Z,97536.40
2023-04-14T15:10:14.678Z,97532.80
2023-04-14T15:12:42.512Z,97531.40
2023-04-14T15:15:10.795Z,97534.60
2023-04-14T15:17:38.637Z,97531.80
2023-04-14T15:20:07.178Z,97530.20
2023-04-14T15:22:36.120Z,97530.40
2023-04-14T15:25:05.193Z,97526.60
2023-04-14T15:27:33.018Z,97535.60
2023-04-14T15:30:00.995Z,97539.40
2023-04-14T15:32:28.975Z,97540.00
2023-04-14T15:34:57.327Z,97543.00
2023-04-14T15:37:26.261Z,97542.40
2023-04-14T15:39:55.052Z,97543.60
2023-04-14T15:42:22.738Z,97545.40
2023-04-14T15:44:51.220Z,97546.60
2023-04-14T15:47:19.265Z,97547.00
2023-04-14T15:49:51.804Z,97545.40
2023-04-14T15:52:34.730Z,97545.00
2023-04-14T15:55:02.387Z,97544.40
2023-04-14T15:57:30.150Z,97550.40
2023-04-14T15:59:57.905Z,97552.60
2023-04-14T16:02:28.634Z,97559.60
2023-04-14T16:04:58.120Z,97556.00
2023-04-14T16:07:28.653Z,97560.40
2023-04-14T16:09:56.487Z,97553.80
2023-04-14T16:12:24.416Z,97555.40
2023-04-14T16:14:54.445Z,97558.00
2023-04-14T16:17:23.961Z,97563.40
2023-04-14T16:19:52.049Z,97558.80
2023-04-14T16:22:19.758Z,97560.00
2023-04-14T16:24:47.377Z,97557.20
2023-04-14T16:27:14.987Z,97565.20
2023-04-14T16:29:42.613Z,97564.00
2023-04-14T16:32:10.572Z,97564.60
2023-04-14T16:34:38.305Z,97567.80
2023-04-14T16:37:06.009Z,97563.80
2023-04-14T16:39:33.672Z,97562.80
2023-04-14T16:42:04.130Z,97561.60
2023-04-14T16:44:32.624Z,97563.00
2023-04-14T16:47:00.459Z,97564.40
2023-04-14T16:49:28.459Z,97560.80
2023-04-14T16:51:57.540Z,97566.00
2023-04-14T16:54:27.604Z,97567.80
2023-04-14T16:56:55.260Z,97567.20
2023-04-14T16:59:22.976Z,97572.20
2023-04-14T17:01:50.996Z,97571.60
2023-04-14T17:04:19.188Z,97574.60
2023-04-14T17:06:47.176Z,97573.60
2023-04-14T17:09:17.568Z,97574.80
2023-04-14T17:11:46.127Z,97576.20
2023-04-14T17:14:13.749Z,97576.20
2023-04-14T17:16:41.459Z,97569.60
2023-04-14T17:19:09.305Z,97571.00
2023-04-14T17:21:38.565Z,97570.80
2023-04-14T17:24:06.288Z,97566.20
2023-04-14T17:26:33.929Z,97575.40
2023-04-14T17:29:01.707Z,97577.00
2023-04-14T17:31:30.005Z,97571.60
2023-04-14T17:33:58.165Z,97576.00
2023-04-14T17:36:26.321Z,97576.40
2023-04-14T17:38:54.072Z,97587.00
2023-04-14T17:41:21.905Z,97588.20
2023-04-14T17:43:49.679Z,97594.80
2023-04-14T17:46:17.715Z,97588.00
2023-04-14T17:48:45.455Z,97585.60
2023-04-14T17:51:13.331Z,97586.80
2023-04-14T17:53:41.859Z,97593.00
2023-04-14T17:56:11.353Z,97596.00
2023-04-14T17:58:39.122Z,97595.80
2023-04-14T18:01:07.612Z,97597.40
2023-04-14T18:03:35.465Z,97591.00
2023-04-14T18:06:03.392Z,97594.60
2023-04-14T18:08:31.064Z,97592.40
2023-04-14T18:10:59.232Z,97593.80
2023-04-14T18:13:30.045Z,97594.40
2023-04-14T18:15:57.716Z,97598.20
2023-04-14T18:18:26.129Z,97590.80
2023-04-14T18:20:54.031Z,97593.80
2023-04-14T18:23:22.415Z,97599.00
2023-04-14T18:28:31.722Z,97599.00
2023-04-14T18:30:59.759Z,97597.20
2023-04-14T18:33:28.446Z,97601.20
2023-04-14T18:36:00.344Z,97607.80
2023-04-14T18:38:28.876Z,97609.60
2023-04-14T18:41:05.051Z,97614.20
2023-04-14T18:43:34.087Z,97608.40
2023-04-14T18:46:02.246Z,97615.60
2023-04-14T18:48:30.080Z,97615.40
2023-04-14T18:51:04.253Z,97616.20
2023-04-14T18:53:32.648Z,97620.80
2023-04-14T18:56:00.607Z,97627.00
2023-04-14T18:58:30.310Z,97630.20
2023-04-14T19:00:58.340Z,97622.00
2023-04-14T19:03:27.013Z,97621.40
2023-04-14T19:05:55.560Z,97618.80
2023-04-14T19:08:23.673Z,97617.20
2023-04-14T19:10:51.786Z,97615.00
2023-04-14T19:13:19.820Z,97620.40
2023-04-14T19:15:47.472Z,97627.20
2023-04-14T19:18:16.861Z,97626.20
2023-04-14T19:20:47.466Z,97622.40
2023-04-14T19:23:15.157Z,97621.80
2023-04-14T19:25:42.939Z,97628.80
2023-04-14T19:28:16.512Z,97628.60
2023-04-14T19:30:45.915Z,97623.40
2023-04-14T19:33:13.740Z,97623.00
2023-04-14T19:35:44.248Z,97627.60
2023-04-14T19:38:12.726Z,97625.80
2023-04-14T19:40:50.126Z,97623.80
2023-04-14T19:43:18.702Z,97626.20
2023-04-14T19:45:54.176Z,97626.80
2023-04-14T19:48:24.343Z,97627.00
2023-04-14T19:50:54.671Z,97626.00
2023-04-14T19:53:24.401Z,97626.00
2023-04-14T19:55:55.878Z,97630.00
2023-04-14T19:58:28.519Z,97627.80
2023-04-14T20:00:57.300Z,97622.80
2023-04-14T20:03:26.609Z,97622.00
2023-04-14T20:05:57.256Z,97624.80
2023-04-14T20:08:30.593Z,97627.60
2023-04-14T20:10:58.416Z,97623.20
2023-04-14T20:13:30.517Z,97623.80
2023-04-14T20:15:58.181Z,97620.00
2023-04-14T20:18:28.682Z,97617.60
2023-04-14T20:20:56.878Z,97613.40
2023-04-14T20:23:25.791Z,97610.80
2023-04-14T20:25:53.693Z,97614.60
2023-04-14T20:28:26.310Z,97613.80
2023-04-14T20:30:54.574Z,97606.00
2023-04-14T20:33:22.935Z,97607.60
2023-04-14T20:35:53.366Z,97608.60
2023-04-14T20:38:22.586Z,97605.80
2023-04-14T20:40:50.337Z,97602.80
2023-04-14T20:43:17.996Z,97607.00
2023-04-14T20:45:45.955Z,97614.60
2023-04-14T20:48:13.945Z,97610.80
2023-04-14T20:50:44.318Z,97612.20
2023-04-14T20:53:12.289Z,97613.40
2023-04-14T20:55:41.145Z,97615.20
2023-04-14T20:58:09.439Z,97619.00
2023-04-14T21:00:37.075Z,97625.60
2023-04-14T21:03:04.791Z,97624.20
2023-04-14T21:05:33.065Z,97613.60
2023-04-14T21:08:00.738Z,97619.80
2023-04-14T21:10:28.496Z,97617.00
2023-04-14T21:15:44.848Z,97613.00
2023-04-14T21:15:55.153Z,97606.80
2023-04-14T21:18:24.128Z,97611.60
2023-04-14T21:20:51.954Z,97607.20
2023-04-14T21:23:20.843Z,97615.60
2023-04-14T21:25:48.839Z,97612.00
2023-04-14T21:28:16.966Z,97616.80
2023-04-14T21:30:44.720Z,97615.60
2023-04-14T21:33:13.155Z,97620.60
2023-04-14T21:35:41.495Z,97619.40
2023-04-14T21:38:09.643Z,97628.40
2023-04-14T21:40:37.231Z,97625.60
2023-04-14T21:43:04.876Z,97622.80
2023-04-14T21:45:32.934Z,97625.00
2023-04-14T21:48:00.986Z,97625.00
2023-04-14T21:50:30.277Z,97633.00
2023-04-14T21:52:58.709Z,97628.80
2023-04-14T21:55:26.424Z,97636.00
2023-04-14T21:57:55.254Z,97628.20
2023-04-14T22:00:23.974Z,97632.20
2023-04-14T22:02:51.696Z,97623.60
2023-04-14T22:05:19.943Z,97624.80
2023-04-14T22:07:47.596Z,97626.80
2023-04-14T22:10:15.569Z,97625.80
2023-04-14T22:12:43.975Z,97633.80
2023-04-14T22:15:11.803Z,97627.80
2023-04-14T22:17:39.524Z,97613.00
2023-04-14T22:20:09.508Z,97608.60
2023-04-14T22:22:37.117Z,97613.60
2023-04-14T22:25:05.217Z,97614.80
2023-04-14T22:27:34.476Z,97617.20
2023-04-14T22:30:05.006Z,97615.40
2023-04-14T22:32:32.786Z,97621.60
2023-04-14T22:35:00.491Z,97618.40
2023-04-14T22:37:28.088Z,97625.40
2023-04-14T22:39:55.785Z,97633.60
2023-04-14T22:42:23.429Z,97638.20
2023-04-14T22:44:52.844Z,97642.60
2023-04-14T22:47:20.993Z,97647.80
2023-04-14T22:49:48.673Z,97649.40
2023-04-14T22:52:18.886Z,97659.40
2023-04-14T22:54:46.951Z,97663.40
2023-04-14T22:57:14.536Z,97669.00
2023-04-14T22:59:42.522Z,97668.20
2023-04-14T23:02:10.423Z,97665.00
2023-04-14T23:04:39.036Z,97664.80
2023-04-14T23:07:06.763Z,97653.40
2023-04-14T23:09:34.363Z,97669.20
2023-04-14T23:12:02.776Z,97672.20
2023-04-14T23:14:32.371Z,97659.40
2023-04-14T23:17:00.178Z,97675.40
2023-04-14T23:19:27.866Z,97674.40
2023-04-14T23:21:55.511Z,97676.60
2023-04-14T23:24:23.580Z,97677.20
2023-04-14T23:26:51.324Z,97678.80
2023-04-14T23:29:19.266Z,97674.40
2023-04-14T23:31:47.268Z,97673.60
2023-04-14T23:34:14.909Z,97679.80
2023-04-14T23:36:43.442Z,97684.60
2023-04-14T23:39:11.830Z,97685.20
2023-04-14T23:41:39.455Z,97685.20
2023-04-14T23:44:07.063Z,97684.00
2023-04-14T23:46:35.119Z,97683.40
2023-04-14T23:49:10.431Z,97686.20
2023-04-14T23:51:50.672Z,97683.20
2023-04-14T23:54:19.073Z,97690.20
2023-04-14T23:56:47.362Z,97687.20
2023-04-14T23:59:15.035Z,97692.60
